Terminal Aerodrome Forecast
Issued by NWS Green Bay, WI

Home | Current Version | Previous Version | Graphics & Text | Print | Product List | Glossary On
Versions: 1 2 3 4 5 6 7 8 9 10 11 12 13 14 15 16 17 18 19 20 21 22 23 24 25 26 27 28 29 30 31 32
000
FTUS43 KGRB 191100
TAFGRB
TAF
KGRB 191140Z 1912/2012 17008KT 3SM -SN SCT018 OVC027
      TEMPO 1912/1915 1 1/2SM -SN BR
     FM191600 23010KT 6SM -SN SCT020 OVC030
     FM191800 27012G20KT P6SM -SHSN BKN035 BKN050
     FM192200 27014G20KT P6SM SCT025 BKN040
     FM200100 27013KT P6SM BKN040=

USA.gov is the U.S. government's official web portal to all federal, state and local government web resources and services.